createdAt,value
2022-07-26T00:00:14.865Z,23.97
2022-07-26T00:01:14.934Z,23.97
2022-07-26T00:02:18.380Z,24.02
2022-07-26T00:03:14.827Z,24.02
2022-07-26T00:04:14.824Z,24.04
2022-07-26T00:05:14.807Z,24.05
2022-07-26T00:06:14.793Z,24.10
2022-07-26T00:07:14.785Z,24.10
2022-07-26T00:08:14.777Z,24.07
2022-07-26T00:09:14.782Z,24.05
2022-07-26T00:10:14.749Z,24.08
2022-07-26T00:11:14.741Z,24.00
2022-07-26T00:12:14.729Z,24.00
2022-07-26T00:13:14.720Z,24.00
2022-07-26T00:14:14.716Z,23.94
2022-07-26T00:15:14.701Z,23.94
2022-07-26T00:16:14.786Z,23.89
2022-07-26T00:17:14.676Z,23.97
2022-07-26T00:18:14.663Z,23.95
2022-07-26T00:19:14.665Z,23.97
2022-07-26T00:20:14.643Z,23.82
2022-07-26T00:21:14.633Z,23.85
2022-07-26T00:22:14.624Z,23.82
2022-07-26T00:23:14.612Z,23.83
2022-07-26T00:24:14.618Z,23.83
2022-07-26T00:25:14.590Z,23.92
2022-07-26T00:26:14.578Z,23.85
2022-07-26T00:27:14.569Z,23.89
2022-07-26T00:28:14.556Z,23.83
2022-07-26T00:29:14.558Z,23.82
2022-07-26T00:30:14.558Z,23.83
2022-07-26T00:31:14.602Z,23.85
2022-07-26T00:32:14.516Z,23.89
2022-07-26T00:33:14.509Z,23.83
2022-07-26T00:34:14.506Z,23.85
2022-07-26T00:35:14.490Z,23.85
2022-07-26T00:36:14.475Z,23.85
2022-07-26T00:37:20.003Z,23.83
2022-07-26T00:38:15.450Z,23.82
2022-07-26T00:39:14.452Z,23.80
2022-07-26T00:40:14.431Z,23.89
2022-07-26T00:41:14.423Z,23.79
2022-07-26T00:42:14.417Z,23.85
2022-07-26T00:43:14.400Z,23.86
2022-07-26T00:44:14.405Z,23.80
2022-07-26T00:45:14.380Z,23.85
2022-07-26T00:46:14.416Z,23.82
2022-07-26T00:47:14.362Z,23.92
2022-07-26T00:48:14.348Z,23.86
2022-07-26T00:49:14.423Z,23.87
2022-07-26T00:50:14.334Z,23.92
2022-07-26T00:51:14.317Z,23.94
2022-07-26T00:52:14.304Z,23.94
2022-07-26T00:53:14.295Z,23.92
2022-07-26T00:54:14.293Z,23.90
2022-07-26T00:55:14.277Z,23.92
2022-07-26T00:56:14.267Z,23.87
2022-07-26T00:57:14.252Z,23.80
2022-07-26T00:58:14.241Z,23.80
2022-07-26T00:59:14.243Z,23.82
2022-07-26T01:00:14.225Z,23.83
2022-07-26T01:01:14.314Z,23.83
2022-07-26T01:02:14.321Z,23.76
2022-07-26T01:03:14.187Z,23.76
2022-07-26T01:04:14.188Z,23.70
2022-07-26T01:05:14.171Z,23.80
2022-07-26T01:06:14.158Z,23.76
2022-07-26T01:07:15.232Z,23.61
2022-07-26T01:08:14.137Z,23.64
2022-07-26T01:09:14.132Z,23.64
2022-07-26T01:10:14.115Z,23.72
2022-07-26T01:11:14.108Z,23.68
2022-07-26T01:12:14.093Z,23.57
2022-07-26T01:13:14.085Z,23.64
2022-07-26T01:14:14.084Z,23.53
2022-07-26T01:15:14.070Z,23.61
2022-07-26T01:16:14.095Z,23.53
2022-07-26T01:17:14.043Z,23.64
2022-07-26T01:18:14.031Z,23.61
2022-07-26T01:19:14.036Z,23.61
2022-07-26T01:20:14.007Z,23.58
2022-07-26T01:21:14.330Z,23.61
2022-07-26T01:22:14.843Z,23.60
2022-07-26T01:23:13.979Z,23.64
2022-07-26T01:24:13.982Z,23.70
2022-07-26T01:25:13.960Z,23.62
2022-07-26T01:26:14.073Z,23.70
2022-07-26T01:27:13.937Z,23.65
2022-07-26T01:28:19.815Z,23.77
2022-07-26T01:29:14.935Z,23.76
2022-07-26T01:30:13.905Z,23.64
2022-07-26T01:31:13.958Z,23.77
2022-07-26T01:32:13.882Z,23.75
2022-07-26T01:33:13.871Z,23.75
2022-07-26T01:34:13.881Z,23.72
2022-07-26T01:35:13.853Z,23.68
2022-07-26T01:36:13.842Z,23.68
2022-07-26T01:37:13.838Z,23.68
2022-07-26T01:38:13.821Z,23.72
2022-07-26T01:39:13.828Z,23.68
2022-07-26T01:40:13.797Z,23.68
2022-07-26T01:41:13.787Z,23.67
2022-07-26T01:42:13.777Z,23.67
2022-07-26T01:43:13.767Z,23.70
2022-07-26T01:44:13.809Z,23.76
2022-07-26T01:45:13.748Z,23.77
2022-07-26T01:46:13.870Z,23.77
2022-07-26T01:47:13.726Z,23.75
2022-07-26T01:48:13.715Z,23.79
2022-07-26T01:49:13.784Z,23.77
2022-07-26T01:50:13.691Z,23.68
2022-07-26T01:51:13.686Z,23.75
2022-07-26T01:52:13.710Z,23.65
2022-07-26T01:53:13.670Z,23.70
2022-07-26T01:54:13.664Z,23.65
2022-07-26T01:55:13.643Z,23.70
2022-07-26T01:56:13.631Z,23.64
2022-07-26T01:57:13.636Z,23.71
2022-07-26T01:58:13.612Z,23.72
2022-07-26T01:59:13.610Z,23.65
2022-07-26T02:00:13.584Z,23.65
2022-07-26T02:01:13.630Z,23.65
2022-07-26T02:02:13.642Z,23.57
2022-07-26T02:03:13.604Z,23.45
2022-07-26T02:04:13.555Z,23.50
2022-07-26T02:05:13.535Z,23.52
2022-07-26T02:06:13.520Z,23.42
2022-07-26T02:07:13.511Z,23.52
2022-07-26T02:08:13.499Z,23.45
2022-07-26T02:09:13.516Z,23.47
2022-07-26T02:10:13.479Z,23.45
2022-07-26T02:11:13.469Z,23.47
2022-07-26T02:12:13.499Z,23.47
2022-07-26T02:13:13.449Z,23.50
2022-07-26T02:14:13.434Z,23.50
2022-07-26T02:15:14.436Z,23.47
2022-07-26T02:16:13.494Z,23.47
2022-07-26T02:17:13.401Z,23.50
2022-07-26T02:18:13.397Z,23.49
2022-07-26T02:19:13.385Z,23.35
2022-07-26T02:20:13.381Z,23.40
2022-07-26T02:21:13.361Z,23.22
2022-07-26T02:22:13.365Z,23.34
2022-07-26T02:23:13.346Z,23.23
2022-07-26T02:24:13.326Z,23.31
2022-07-26T02:25:13.333Z,23.26
2022-07-26T02:26:13.304Z,23.26
2022-07-26T02:27:13.295Z,23.22
2022-07-26T02:28:13.282Z,23.19
2022-07-26T02:29:13.275Z,23.14
2022-07-26T02:30:13.273Z,23.15
2022-07-26T02:31:15.430Z,23.11
2022-07-26T02:32:13.247Z,23.15
2022-07-26T02:33:13.235Z,23.14
2022-07-26T02:34:13.218Z,23.15
2022-07-26T02:35:13.220Z,23.12
2022-07-26T02:36:13.200Z,23.04
2022-07-26T02:37:13.187Z,23.01
2022-07-26T02:38:13.175Z,23.07
2022-07-26T02:39:13.165Z,23.04
2022-07-26T02:40:18.514Z,23.07
2022-07-26T02:41:14.145Z,23.02
2022-07-26T02:42:13.136Z,22.96
2022-07-26T02:43:13.121Z,22.94
2022-07-26T02:44:13.109Z,22.94
2022-07-26T02:45:13.114Z,22.96
2022-07-26T02:46:13.145Z,22.97
2022-07-26T02:47:13.077Z,22.99
2022-07-26T02:48:13.066Z,22.93
2022-07-26T02:49:13.131Z,22.93
2022-07-26T02:50:13.055Z,22.93
2022-07-26T02:51:13.034Z,22.92
2022-07-26T02:52:13.020Z,22.96
2022-07-26T02:53:13.013Z,22.93
2022-07-26T02:54:13.000Z,22.92
2022-07-26T02:55:13.004Z,22.87
2022-07-26T02:56:12.979Z,22.84
2022-07-26T02:57:12.967Z,22.92
2022-07-26T02:58:12.955Z,22.84
2022-07-26T02:59:12.946Z,22.84
2022-07-26T03:00:12.947Z,22.87
2022-07-26T03:01:12.952Z,22.86
2022-07-26T03:02:12.912Z,22.87
2022-07-26T03:03:12.999Z,22.87
2022-07-26T03:04:12.889Z,22.94
2022-07-26T03:05:12.894Z,22.89
2022-07-26T03:06:12.867Z,22.89
2022-07-26T03:07:12.858Z,22.92
2022-07-26T03:08:12.847Z,22.93
2022-07-26T03:09:12.838Z,22.93
2022-07-26T03:10:12.834Z,22.90
2022-07-26T03:11:12.814Z,22.90
2022-07-26T03:12:12.802Z,22.92
2022-07-26T03:13:12.793Z,22.89
2022-07-26T03:14:12.782Z,22.93
2022-07-26T03:15:12.786Z,22.94
2022-07-26T03:16:12.793Z,22.89
2022-07-26T03:17:12.748Z,22.92
2022-07-26T03:18:12.738Z,22.93
2022-07-26T03:19:13.390Z,22.90
2022-07-26T03:20:12.822Z,22.90
2022-07-26T03:21:12.714Z,22.89
2022-07-26T03:22:12.696Z,22.87
2022-07-26T03:23:12.682Z,22.89
2022-07-26T03:24:12.671Z,22.87
2022-07-26T03:25:12.678Z,22.83
2022-07-26T03:26:12.651Z,22.84
2022-07-26T03:27:12.645Z,22.90
2022-07-26T03:28:17.451Z,22.82
2022-07-26T03:29:13.616Z,22.83
2022-07-26T03:30:12.924Z,22.82
2022-07-26T03:31:12.646Z,22.83
2022-07-26T03:32:12.583Z,22.82
2022-07-26T03:33:12.574Z,22.82
2022-07-26T03:34:12.563Z,22.83
2022-07-26T03:35:12.561Z,22.86
2022-07-26T03:36:12.862Z,22.83
2022-07-26T03:37:12.529Z,22.84
2022-07-26T03:38:12.519Z,22.83
2022-07-26T03:39:12.511Z,22.83
2022-07-26T03:40:12.510Z,22.78
2022-07-26T03:41:13.856Z,22.77
2022-07-26T03:42:12.476Z,22.71
2022-07-26T03:43:12.466Z,22.75
2022-07-26T03:44:12.461Z,22.69
2022-07-26T03:45:12.451Z,22.74
2022-07-26T03:46:12.526Z,22.68
2022-07-26T03:47:12.420Z,22.74
2022-07-26T03:48:12.408Z,22.80
2022-07-26T03:49:16.534Z,22.74
2022-07-26T03:50:12.399Z,22.77
2022-07-26T03:51:12.376Z,22.77
2022-07-26T03:52:12.366Z,22.74
2022-07-26T03:53:12.354Z,22.75
2022-07-26T03:54:12.702Z,22.78
2022-07-26T03:55:12.343Z,22.78
2022-07-26T03:56:12.322Z,22.77
2022-07-26T03:57:12.313Z,22.82
2022-07-26T03:58:12.304Z,22.74
2022-07-26T03:59:12.287Z,22.71
2022-07-26T04:00:12.293Z,22.74
2022-07-26T04:01:12.316Z,22.75
2022-07-26T04:02:12.325Z,22.65
2022-07-26T04:03:12.245Z,22.68
2022-07-26T04:04:12.405Z,22.68
2022-07-26T04:05:12.314Z,22.74
2022-07-26T04:06:12.214Z,22.71
2022-07-26T04:07:12.200Z,22.67
2022-07-26T04:08:12.193Z,22.71
2022-07-26T04:09:12.180Z,22.71
2022-07-26T04:10:12.179Z,22.69
2022-07-26T04:11:12.156Z,22.67
2022-07-26T04:12:12.147Z,22.69
2022-07-26T04:13:12.133Z,22.56
2022-07-26T04:14:12.507Z,22.68
2022-07-26T04:15:12.124Z,22.60
2022-07-26T04:16:12.105Z,22.57
2022-07-26T04:17:12.149Z,22.60
2022-07-26T04:18:12.082Z,22.56
2022-07-26T04:19:12.074Z,22.68
2022-07-26T04:20:12.074Z,22.57
2022-07-26T04:21:12.046Z,22.68
2022-07-26T04:22:12.040Z,22.71
2022-07-26T04:23:12.332Z,22.69
2022-07-26T04:24:12.272Z,22.64
2022-07-26T04:25:12.013Z,22.71
2022-07-26T04:26:11.999Z,22.68
2022-07-26T04:27:11.981Z,22.59
2022-07-26T04:28:11.977Z,22.57
2022-07-26T04:29:11.962Z,22.67
2022-07-26T04:30:15.013Z,22.71
2022-07-26T04:31:11.981Z,22.69
2022-07-26T04:32:11.930Z,22.68
2022-07-26T04:33:11.918Z,22.69
2022-07-26T04:34:12.036Z,22.77
2022-07-26T04:35:11.926Z,22.69
2022-07-26T04:36:11.885Z,22.74
2022-07-26T04:37:11.873Z,22.72
2022-07-26T04:38:11.864Z,22.74
2022-07-26T04:39:11.851Z,22.78
2022-07-26T04:40:11.889Z,22.84
2022-07-26T04:41:11.830Z,22.86
2022-07-26T04:42:11.820Z,22.84
2022-07-26T04:43:15.409Z,22.83
2022-07-26T04:44:12.151Z,22.89
2022-07-26T04:45:11.797Z,22.90
2022-07-26T04:46:11.860Z,22.92
2022-07-26T04:47:12.041Z,22.97
2022-07-26T04:48:11.795Z,23.02
2022-07-26T04:49:11.801Z,23.04
2022-07-26T04:50:11.747Z,23.08
2022-07-26T04:51:11.721Z,23.09
2022-07-26T04:52:11.711Z,23.15
2022-07-26T04:53:11.703Z,23.15
2022-07-26T04:54:11.945Z,23.15
2022-07-26T04:55:11.686Z,23.17
2022-07-26T04:56:11.667Z,23.26
2022-07-26T04:57:11.654Z,23.20
2022-07-26T04:58:11.655Z,23.27
2022-07-26T04:59:11.634Z,23.31
2022-07-26T05:00:24.892Z,23.32
2022-07-26T05:01:12.756Z,23.39
2022-07-26T05:02:11.773Z,23.27
2022-07-26T05:03:11.627Z,23.27
2022-07-26T05:04:11.795Z,23.39
2022-07-26T05:05:11.582Z,23.47
2022-07-26T05:06:11.562Z,23.52
2022-07-26T05:07:11.552Z,23.45
2022-07-26T05:08:11.539Z,23.46
2022-07-26T05:09:11.527Z,23.46
2022-07-26T05:10:11.530Z,23.50
2022-07-26T05:11:11.508Z,23.58
2022-07-26T05:12:11.498Z,23.47
2022-07-26T05:13:11.484Z,23.52
2022-07-26T05:14:11.784Z,23.55
2022-07-26T05:15:13.807Z,23.52
2022-07-26T05:16:11.811Z,23.52
2022-07-26T05:17:12.505Z,23.58
2022-07-26T05:18:13.566Z,23.60
2022-07-26T05:19:11.455Z,23.52
2022-07-26T05:20:11.427Z,23.47
2022-07-26T05:21:11.400Z,23.53
2022-07-26T05:22:11.392Z,23.50
2022-07-26T05:23:11.381Z,23.52
2022-07-26T05:24:11.807Z,23.57
2022-07-26T05:25:11.373Z,23.60
2022-07-26T05:26:11.351Z,23.53
2022-07-26T05:27:11.338Z,23.62
2022-07-26T05:28:11.330Z,23.68
2022-07-26T05:29:11.318Z,23.67
2022-07-26T05:30:11.317Z,23.71
2022-07-26T05:31:11.366Z,23.77
2022-07-26T05:32:11.286Z,23.79
2022-07-26T05:33:11.274Z,23.75
2022-07-26T05:34:12.365Z,23.65
2022-07-26T05:35:11.263Z,23.70
2022-07-26T05:36:11.246Z,23.79
2022-07-26T05:37:11.233Z,23.72
2022-07-26T05:38:11.222Z,23.72
2022-07-26T05:39:15.720Z,23.83
2022-07-26T05:40:11.210Z,23.71
2022-07-26T05:41:11.189Z,23.87
2022-07-26T05:42:11.180Z,23.83
2022-07-26T05:43:11.168Z,23.83
2022-07-26T05:44:11.592Z,23.87
2022-07-26T05:45:11.166Z,23.89
2022-07-26T05:46:11.279Z,23.97
2022-07-26T05:47:11.127Z,23.98
2022-07-26T05:48:11.117Z,24.07
2022-07-26T05:49:11.172Z,24.10
2022-07-26T05:50:11.135Z,24.08
2022-07-26T05:51:11.087Z,24.22
2022-07-26T05:52:11.073Z,24.23
2022-07-26T05:53:11.067Z,24.31
2022-07-26T05:54:11.434Z,24.32
2022-07-26T05:55:11.059Z,24.41
2022-07-26T05:56:11.034Z,24.42
2022-07-26T05:57:11.023Z,24.39
2022-07-26T05:58:11.011Z,24.45
2022-07-26T05:59:10.998Z,24.53
2022-07-26T06:00:11.000Z,24.56
2022-07-26T06:01:10.976Z,24.54
2022-07-26T06:02:11.033Z,24.60
2022-07-26T06:03:10.957Z,24.59
2022-07-26T06:04:11.475Z,24.77
2022-07-26T06:05:10.958Z,24.69
2022-07-26T06:06:10.920Z,24.73
2022-07-26T06:07:10.917Z,24.67
2022-07-26T06:08:10.900Z,24.80
2022-07-26T06:09:10.890Z,24.77
2022-07-26T06:10:10.877Z,24.69
2022-07-26T06:11:10.891Z,24.82
2022-07-26T06:12:10.859Z,24.73
2022-07-26T06:13:10.844Z,24.76
2022-07-26T06:14:11.165Z,24.69
2022-07-26T06:15:15.524Z,24.76
2022-07-26T06:16:11.820Z,24.69
2022-07-26T06:17:10.864Z,24.73
2022-07-26T06:18:10.791Z,24.77
2022-07-26T06:19:10.779Z,24.76
2022-07-26T06:20:10.767Z,24.73
2022-07-26T06:21:10.839Z,24.79
2022-07-26T06:22:10.746Z,24.83
2022-07-26T06:23:10.737Z,24.88
2022-07-26T06:24:11.220Z,24.92
2022-07-26T06:25:10.710Z,24.94
2022-07-26T06:26:10.710Z,24.90
2022-07-26T06:27:10.695Z,25.01
2022-07-26T06:28:10.685Z,25.00
2022-07-26T06:29:10.666Z,25.02
2022-07-26T06:30:10.661Z,25.12
2022-07-26T06:31:10.661Z,25.09
2022-07-26T06:32:10.697Z,25.15
2022-07-26T06:33:10.622Z,25.15
2022-07-26T06:34:11.124Z,25.24
2022-07-26T06:35:10.600Z,25.19
2022-07-26T06:36:10.602Z,25.22
2022-07-26T06:37:10.579Z,25.35
2022-07-26T06:38:10.570Z,25.35
2022-07-26T06:39:10.557Z,25.44
2022-07-26T06:40:10.545Z,25.47
2022-07-26T06:41:10.542Z,25.46
2022-07-26T06:42:10.522Z,25.42
2022-07-26T06:43:10.510Z,25.46
2022-07-26T06:44:10.993Z,25.59
2022-07-26T06:45:10.489Z,25.64
2022-07-26T06:46:10.515Z,25.65
2022-07-26T06:47:10.464Z,25.62
2022-07-26T06:48:10.457Z,25.64
2022-07-26T06:49:10.502Z,25.64
2022-07-26T06:50:10.440Z,25.69
2022-07-26T06:51:10.434Z,25.71
2022-07-26T06:52:10.409Z,25.69
2022-07-26T06:53:10.467Z,25.69
2022-07-26T06:54:10.894Z,25.84
2022-07-26T06:55:12.691Z,25.84
2022-07-26T06:56:10.365Z,26.04
2022-07-26T06:57:10.434Z,26.08
2022-07-26T06:58:10.344Z,26.21
2022-07-26T06:59:10.698Z,26.39
2022-07-26T07:00:10.345Z,26.67
2022-07-26T07:01:10.406Z,26.94
2022-07-26T07:02:10.363Z,27.13
2022-07-26T07:03:10.290Z,27.24
2022-07-26T07:04:10.955Z,27.41
2022-07-26T07:05:10.335Z,27.73
2022-07-26T07:06:10.269Z,27.82
2022-07-26T07:07:10.247Z,27.92
2022-07-26T07:08:10.341Z,28.01
2022-07-26T07:09:10.225Z,28.10
2022-07-26T07:10:10.216Z,28.07
2022-07-26T07:11:10.215Z,28.25
2022-07-26T07:12:10.841Z,28.31
2022-07-26T07:13:10.181Z,28.46
2022-07-26T07:14:10.549Z,28.50
2022-07-26T07:15:10.158Z,28.56
2022-07-26T07:16:10.235Z,28.48
2022-07-26T07:17:12.206Z,28.38
2022-07-26T07:18:10.131Z,28.53
2022-07-26T07:19:10.117Z,28.72
2022-07-26T07:20:10.108Z,28.69
2022-07-26T07:21:10.107Z,28.72
2022-07-26T07:22:10.089Z,28.51
2022-07-26T07:23:10.077Z,28.48
2022-07-26T07:24:10.307Z,28.51
2022-07-26T07:25:10.054Z,28.50
2022-07-26T07:26:10.058Z,28.66
2022-07-26T07:27:10.486Z,28.72
2022-07-26T07:28:10.024Z,28.72
2022-07-26T07:29:10.012Z,28.58
2022-07-26T07:30:10.006Z,28.60
2022-07-26T07:31:10.107Z,28.62
2022-07-26T07:32:15.732Z,28.68
2022-07-26T07:33:22.593Z,28.56
2022-07-26T07:34:11.369Z,28.69
2022-07-26T07:35:12.980Z,28.62
2022-07-26T07:36:09.953Z,28.70
2022-07-26T07:37:09.926Z,28.51
2022-07-26T07:38:09.916Z,28.38
2022-07-26T07:39:15.594Z,28.38
2022-07-26T07:40:10.893Z,28.47
2022-07-26T07:41:09.895Z,28.51
2022-07-26T07:42:09.872Z,28.51
2022-07-26T07:43:09.860Z,28.56
2022-07-26T07:44:10.319Z,28.82
2022-07-26T07:45:09.840Z,29.08
2022-07-26T07:46:09.845Z,29.37
2022-07-26T07:47:09.858Z,29.50
2022-07-26T07:48:09.824Z,29.57
2022-07-26T07:49:10.171Z,29.45
2022-07-26T07:50:09.830Z,29.68
2022-07-26T07:51:09.792Z,30.07
2022-07-26T07:52:09.767Z,30.31
2022-07-26T07:53:09.776Z,30.52
2022-07-26T07:54:09.746Z,30.37
2022-07-26T07:55:28.766Z,30.75
2022-07-26T07:56:10.736Z,30.96
2022-07-26T07:57:09.715Z,31.24
2022-07-26T07:58:09.729Z,31.31
2022-07-26T07:59:10.143Z,31.01
2022-07-26T08:00:09.681Z,31.20
2022-07-26T08:01:09.740Z,31.31
2022-07-26T08:02:09.687Z,31.30
2022-07-26T08:03:09.654Z,31.43
2022-07-26T08:04:09.737Z,31.57
2022-07-26T08:05:11.450Z,31.79
2022-07-26T08:06:09.632Z,31.85
2022-07-26T08:07:09.616Z,31.80
2022-07-26T08:08:09.600Z,31.64
2022-07-26T08:09:10.052Z,31.73
2022-07-26T08:10:09.581Z,31.79
2022-07-26T08:11:09.583Z,31.88
2022-07-26T08:12:09.559Z,31.76
2022-07-26T08:13:09.933Z,31.67
2022-07-26T08:14:09.538Z,31.35
2022-07-26T08:15:09.556Z,31.06
2022-07-26T08:16:09.774Z,30.78
2022-07-26T08:17:09.509Z,30.94
2022-07-26T08:18:09.499Z,30.99
2022-07-26T08:19:09.790Z,30.75
2022-07-26T08:20:11.988Z,30.57
2022-07-26T08:21:10.478Z,30.33
2022-07-26T08:22:09.458Z,30.14
2022-07-26T08:23:09.447Z,30.03
2022-07-26T08:24:09.435Z,30.03
2022-07-26T08:25:09.424Z,29.93
2022-07-26T08:26:09.426Z,29.74
2022-07-26T08:27:09.407Z,29.62
2022-07-26T08:28:30.630Z,29.52
2022-07-26T08:29:10.608Z,29.55
2022-07-26T08:30:09.376Z,29.44
2022-07-26T08:31:09.524Z,29.28
2022-07-26T08:32:09.353Z,28.97
2022-07-26T08:33:09.344Z,28.75
2022-07-26T08:34:09.347Z,28.54
2022-07-26T08:35:18.073Z,28.41
2022-07-26T08:36:10.322Z,28.29
2022-07-26T08:37:17.837Z,28.28
2022-07-26T08:38:10.334Z,28.16
2022-07-26T08:39:09.628Z,28.07
2022-07-26T08:40:09.268Z,28.09
2022-07-26T08:41:09.269Z,28.01
2022-07-26T08:42:09.258Z,28.19
2022-07-26T08:43:09.240Z,28.29
2022-07-26T08:44:09.230Z,28.58
2022-07-26T08:45:09.219Z,28.53
2022-07-26T08:46:09.295Z,28.62
2022-07-26T08:47:09.250Z,29.07
2022-07-26T08:48:18.172Z,29.37
2022-07-26T08:49:10.607Z,29.90
2022-07-26T08:50:09.164Z,30.15
2022-07-26T08:51:11.233Z,30.52
2022-07-26T08:52:09.142Z,30.24
2022-07-26T08:53:09.135Z,29.82
2022-07-26T08:54:09.122Z,29.87
2022-07-26T08:55:09.110Z,29.62
2022-07-26T08:56:09.112Z,29.52
2022-07-26T08:57:09.092Z,29.33
2022-07-26T08:58:09.079Z,29.16
2022-07-26T08:59:09.338Z,29.07
2022-07-26T09:00:09.062Z,28.84
2022-07-26T09:01:09.269Z,28.85
2022-07-26T09:02:09.038Z,28.62
2022-07-26T09:03:09.031Z,28.46
2022-07-26T09:04:09.088Z,28.31
2022-07-26T09:05:09.009Z,28.19
2022-07-26T09:06:09.006Z,28.10
2022-07-26T09:07:08.990Z,28.22
2022-07-26T09:08:08.974Z,28.14
2022-07-26T09:09:09.313Z,28.40
2022-07-26T09:10:08.953Z,28.66
2022-07-26T09:11:08.945Z,28.95
2022-07-26T09:12:08.946Z,28.90
2022-07-26T09:13:08.949Z,29.10
2022-07-26T09:14:08.914Z,29.50
2022-07-26T09:15:08.900Z,29.47
2022-07-26T09:16:08.952Z,29.49
2022-07-26T09:17:08.893Z,29.31
2022-07-26T09:18:08.868Z,29.01
2022-07-26T09:19:09.370Z,28.80
2022-07-26T09:20:08.846Z,28.70
2022-07-26T09:21:08.837Z,28.47
2022-07-26T09:22:10.577Z,28.48
2022-07-26T09:23:08.818Z,28.22
2022-07-26T09:24:08.803Z,28.16
2022-07-26T09:25:08.798Z,27.99
2022-07-26T09:26:08.781Z,27.96
2022-07-26T09:27:08.815Z,27.88
2022-07-26T09:28:08.764Z,27.69
2022-07-26T09:29:09.292Z,27.54
2022-07-26T09:30:08.740Z,27.43
2022-07-26T09:31:08.751Z,27.29
2022-07-26T09:32:08.756Z,27.19
2022-07-26T09:33:08.709Z,27.10
2022-07-26T09:34:09.187Z,27.05
2022-07-26T09:35:23.940Z,27.09
2022-07-26T09:36:09.673Z,26.98
2022-07-26T09:37:12.449Z,27.02
2022-07-26T09:38:08.666Z,26.94
2022-07-26T09:39:08.985Z,26.95
2022-07-26T09:40:08.637Z,26.91
2022-07-26T09:41:08.623Z,26.81
2022-07-26T09:42:29.435Z,26.94
2022-07-26T09:43:09.917Z,26.91
2022-07-26T09:44:08.986Z,26.86
2022-07-26T09:45:08.580Z,26.84
2022-07-26T09:46:08.605Z,26.81
2022-07-26T09:47:08.573Z,27.01
2022-07-26T09:48:08.546Z,27.14
2022-07-26T09:49:11.033Z,27.58
2022-07-26T09:50:11.445Z,28.23
2022-07-26T09:51:08.515Z,28.69
2022-07-26T09:52:08.513Z,29.31
2022-07-26T09:53:08.509Z,29.55
2022-07-26T09:54:09.072Z,30.05
2022-07-26T09:55:08.479Z,30.34
2022-07-26T09:56:08.471Z,30.69
2022-07-26T09:57:08.461Z,30.99
2022-07-26T09:58:08.441Z,31.28
2022-07-26T09:59:08.430Z,31.42
2022-07-26T10:00:08.419Z,31.60
2022-07-26T10:01:08.411Z,31.87
2022-07-26T10:02:08.485Z,32.14
2022-07-26T10:03:08.465Z,32.32
2022-07-26T10:04:08.761Z,32.39
2022-07-26T10:05:08.370Z,31.99
2022-07-26T10:06:08.357Z,32.15
2022-07-26T10:07:08.358Z,32.29
2022-07-26T10:08:08.368Z,32.24
2022-07-26T10:09:08.334Z,31.87
2022-07-26T10:10:08.319Z,31.54
2022-07-26T10:11:08.307Z,31.13
2022-07-26T10:12:08.311Z,30.76
2022-07-26T10:13:08.285Z,30.57
2022-07-26T10:14:08.545Z,30.38
2022-07-26T10:15:08.340Z,30.21
2022-07-26T10:16:08.281Z,30.23
2022-07-26T10:17:08.254Z,29.90
2022-07-26T10:18:08.234Z,29.68
2022-07-26T10:19:08.225Z,29.55
2022-07-26T10:20:09.284Z,29.22
2022-07-26T10:21:09.204Z,29.16
2022-07-26T10:22:08.204Z,29.03
2022-07-26T10:23:08.226Z,29.01
2022-07-26T10:24:08.538Z,29.00
2022-07-26T10:25:08.161Z,29.16
2022-07-26T10:26:08.152Z,29.23
2022-07-26T10:27:08.158Z,29.18
2022-07-26T10:28:12.056Z,29.23
2022-07-26T10:29:08.119Z,29.07
2022-07-26T10:30:08.108Z,29.16
2022-07-26T10:31:08.152Z,29.00
2022-07-26T10:32:08.102Z,28.87
2022-07-26T10:33:08.082Z,28.68
2022-07-26T10:34:08.367Z,28.60
2022-07-26T10:35:08.057Z,28.59
2022-07-26T10:36:08.050Z,28.46
2022-07-26T10:37:08.046Z,28.40
2022-07-26T10:38:08.037Z,28.33
2022-07-26T10:39:08.015Z,28.23
2022-07-26T10:40:08.054Z,28.25
2022-07-26T10:41:07.995Z,28.21
2022-07-26T10:42:08.003Z,28.04
2022-07-26T10:43:37.655Z,27.96
2022-07-26T10:44:09.239Z,27.92
2022-07-26T10:45:07.949Z,27.85
2022-07-26T10:46:07.996Z,27.66
2022-07-26T10:47:07.947Z,27.62
2022-07-26T10:48:07.928Z,27.42
2022-07-26T10:49:07.950Z,27.48
2022-07-26T10:50:07.918Z,27.33
2022-07-26T10:51:07.890Z,27.39
2022-07-26T10:52:07.901Z,27.46
2022-07-26T10:53:07.866Z,27.36
2022-07-26T10:54:08.196Z,27.53
2022-07-26T10:55:07.847Z,27.62
2022-07-26T10:56:07.834Z,27.74
2022-07-26T10:57:07.836Z,27.73
2022-07-26T10:58:07.812Z,27.70
2022-07-26T10:59:07.805Z,27.67
2022-07-26T11:00:07.790Z,27.67
2022-07-26T11:01:07.840Z,27.64
2022-07-26T11:02:07.861Z,27.73
2022-07-26T11:03:07.908Z,27.70
2022-07-26T11:04:08.237Z,27.76
2022-07-26T11:05:07.759Z,27.77
2022-07-26T11:06:07.729Z,27.73
2022-07-26T11:07:07.729Z,27.64
2022-07-26T11:08:07.709Z,27.73
2022-07-26T11:09:07.698Z,27.62
2022-07-26T11:10:07.684Z,27.39
2022-07-26T11:11:07.674Z,27.41
2022-07-26T11:12:07.671Z,27.29
2022-07-26T11:13:07.654Z,27.31
2022-07-26T11:14:08.107Z,27.35
2022-07-26T11:15:07.633Z,27.36
2022-07-26T11:16:07.649Z,27.36
2022-07-26T11:17:07.631Z,27.41
2022-07-26T11:18:07.601Z,27.48
2022-07-26T11:19:07.590Z,27.48
2022-07-26T11:20:07.660Z,27.50
2022-07-26T11:21:07.568Z,27.58
2022-07-26T11:22:07.567Z,27.64
2022-07-26T11:23:07.553Z,27.67
2022-07-26T11:24:07.948Z,27.73
2022-07-26T11:25:07.527Z,27.73
2022-07-26T11:26:07.513Z,27.76
2022-07-26T11:27:07.515Z,27.66
2022-07-26T11:28:08.298Z,27.71
2022-07-26T11:29:07.482Z,27.77
2022-07-26T11:30:07.521Z,27.73
2022-07-26T11:31:07.518Z,27.77
2022-07-26T11:32:14.831Z,27.58
2022-07-26T11:33:08.438Z,27.66
2022-07-26T11:34:07.547Z,27.64
2022-07-26T11:35:07.459Z,27.62
2022-07-26T11:36:07.406Z,27.59
2022-07-26T11:37:07.407Z,27.77
2022-07-26T11:38:12.111Z,27.76
2022-07-26T11:39:08.378Z,27.86
2022-07-26T11:40:07.365Z,27.77
2022-07-26T11:41:07.351Z,27.79
2022-07-26T11:42:07.354Z,27.79
2022-07-26T11:43:07.333Z,27.79
2022-07-26T11:44:07.320Z,27.85
2022-07-26T11:45:07.312Z,27.77
2022-07-26T11:46:07.360Z,27.73
2022-07-26T11:47:07.301Z,27.74
2022-07-26T11:48:07.275Z,27.71
2022-07-26T11:49:07.507Z,27.76
2022-07-26T11:50:14.311Z,27.64
2022-07-26T11:51:08.246Z,27.42
2022-07-26T11:52:07.248Z,27.48
2022-07-26T11:53:07.229Z,27.43
2022-07-26T11:54:07.498Z,27.32
2022-07-26T11:55:07.217Z,27.35
2022-07-26T11:56:07.190Z,27.26
2022-07-26T11:57:07.198Z,27.21
2022-07-26T11:58:07.184Z,27.21
2022-07-26T11:59:07.187Z,27.13
2022-07-26T12:00:07.148Z,27.09
2022-07-26T12:01:07.169Z,27.13
2022-07-26T12:02:07.137Z,27.01
2022-07-26T12:03:07.118Z,27.04
2022-07-26T12:04:07.209Z,27.05
2022-07-26T12:05:07.171Z,26.96
2022-07-26T12:06:07.082Z,26.96
2022-07-26T12:07:07.101Z,26.95
2022-07-26T12:08:07.068Z,26.94
2022-07-26T12:09:07.055Z,26.92
2022-07-26T12:10:07.064Z,26.92
2022-07-26T12:11:07.052Z,26.92
2022-07-26T12:12:07.036Z,26.96
2022-07-26T12:13:07.007Z,26.92
2022-07-26T12:14:07.282Z,26.98
2022-07-26T12:15:07.161Z,26.94
2022-07-26T12:16:07.114Z,26.86
2022-07-26T12:17:06.981Z,27.05
2022-07-26T12:18:06.967Z,26.94
2022-07-26T12:19:06.948Z,26.73
2022-07-26T12:20:06.933Z,26.46
2022-07-26T12:21:08.074Z,26.49
2022-07-26T12:22:06.922Z,26.39
2022-07-26T12:23:06.902Z,26.32
2022-07-26T12:24:07.089Z,26.15
2022-07-26T12:25:06.879Z,25.90
2022-07-26T12:26:10.025Z,25.72
2022-07-26T12:27:06.866Z,25.49
2022-07-26T12:28:06.844Z,25.15
2022-07-26T12:29:06.838Z,24.87
2022-07-26T12:30:06.822Z,24.79
2022-07-26T12:31:06.864Z,24.61
2022-07-26T12:32:12.127Z,24.53
2022-07-26T12:33:07.785Z,24.37
2022-07-26T12:34:06.779Z,24.37
2022-07-26T12:35:06.764Z,24.14
2022-07-26T12:36:06.759Z,23.94
2022-07-26T12:37:06.758Z,23.97
2022-07-26T12:38:06.732Z,23.79
2022-07-26T12:39:06.721Z,23.75
2022-07-26T12:40:06.709Z,23.71
2022-07-26T12:41:06.698Z,23.62
2022-07-26T12:42:06.699Z,23.53
2022-07-26T12:43:06.677Z,23.46
2022-07-26T12:44:06.667Z,23.24
2022-07-26T12:45:06.655Z,23.05
2022-07-26T12:46:06.710Z,22.94
2022-07-26T12:47:06.650Z,22.99
2022-07-26T12:48:06.622Z,23.01
2022-07-26T12:49:06.802Z,23.07
2022-07-26T12:50:06.606Z,22.94
2022-07-26T12:51:06.694Z,22.83
2022-07-26T12:52:06.617Z,22.89